Time;durP1;ratioP1;P1;durP2;ratioP2;P2;SDS_P1;SDS_P2;PMS_P1;PMS_P2;Temp;Humidity;BMP_temperature;BMP_pressure;BME280_temperature;BME280_humidity;BME280_pressure;Samples;Min_cycle;Max_cycle;Signal;HPM_P1;HPM_P2
2022/02/11 00:06:23;;;;;;;0.70;0.53;;;6.30;99.90;;;;;;5011848;28;20467;-70
2022/02/11 00:08:29;;;;;;;1.63;0.70;;;6.30;99.90;;;;;;5007055;28;20479;-70
2022/02/11 00:10:55;;;;;;;1.03;0.80;;;6.30;99.90;;;;;;4997867;28;20492;-70
2022/02/11 00:13:20;;;;;;;0.73;0.50;;;6.20;99.90;;;;;;4994264;28;20500;-70
2022/02/11 00:15:47;;;;;;;0.70;0.53;;;6.20;99.90;;;;;;4988860;28;20225;-69
2022/02/11 00:18:15;;;;;;;0.63;0.63;;;6.20;99.90;;;;;;5010044;28;20365;-69
2022/02/11 00:20:49;;;;;;;0.77;0.77;;;6.10;99.90;;;;;;5010508;28;21029;-69
2022/02/11 00:23:17;;;;;;;1.27;0.63;;;6.00;99.90;;;;;;5008921;28;20447;-70
2022/02/11 00:25:58;;;;;;;0.60;0.60;;;6.00;99.90;;;;;;4990417;28;20460;-69
2022/02/11 00:33:55;;;;;;;0.70;0.50;;;5.90;99.90;;;;;;4991613;28;20545;-70
2022/02/11 00:36:26;;;;;;;0.40;0.30;;;5.90;99.90;;;;;;4993022;28;20456;-69
2022/02/11 01:03:23;;;;;;;1.00;0.80;;;5.80;99.90;;;;;;4998995;28;20826;-69
2022/02/11 01:05:49;;;;;;;0.47;0.47;;;5.80;99.90;;;;;;5009056;28;21017;-70
2022/02/11 01:08:15;;;;;;;23.70;9.80;;;5.80;99.90;;;;;;4990439;28;20465;-70
2022/02/11 01:10:41;;;;;;;9.67;5.20;;;5.80;99.90;;;;;;5006246;28;20546;-70
2022/02/11 01:13:07;;;;;;;3.23;1.77;;;5.70;99.90;;;;;;4992347;28;20465;-71
2022/02/11 01:15:35;;;;;;;1.70;1.30;;;5.80;99.90;;;;;;5000263;28;20259;-70
2022/02/11 01:18:04;;;;;;;0.80;0.70;;;5.80;99.90;;;;;;4989358;28;21148;-71
2022/02/11 01:20:45;;;;;;;0.80;0.80;;;5.70;99.90;;;;;;4974040;28;20854;-70
2022/02/11 01:23:44;;;;;;;0.80;0.60;;;5.70;99.90;;;;;;4970763;28;20456;-69
2022/02/11 01:31:05;;;;;;;0.60;0.60;;;5.70;99.90;;;;;;4990994;28;20564;-69
2022/02/11 01:34:02;;;;;;;;;;;;;;;;;;;;;
2022/02/11 01:36:34;;;;;;;0.80;0.40;;;5.60;99.90;;;;;;4990337;28;20472;-69
2022/02/11 01:39:31;;;;;;;0.40;0.40;;;5.60;99.90;;;;;;4988584;28;20460;-69
2022/02/11 01:52:43;;;;;;;0.40;0.40;;;5.60;99.90;;;;;;4980215;28;20496;-69
2022/02/11 01:55:58;;;;;;;0.60;0.50;;;5.60;99.90;;;;;;4996646;28;20504;-68
2022/02/11 01:58:50;;;;;;;0.70;0.53;;;5.60;99.90;;;;;;5004175;28;20480;-69
2022/02/11 02:01:39;;;;;;;;;;;;;;;;;;;;;
2022/02/11 02:12:00;;;;;;;;;;;;;;;;;;;;;
2022/02/11 02:57:31;;;;;;;0.70;0.70;;;5.30;99.90;;;;;;4991883;28;20473;-69
2022/02/11 03:48:36;;;;;;;0.87;0.87;;;5.30;99.90;;;;;;5002618;28;20543;-69
2022/02/11 03:53:17;;;;;;;1.30;0.93;;;5.10;99.90;;;;;;4972700;28;20931;-70
2022/02/11 04:55:25;;;;;;;4.23;2.03;;;4.80;99.90;;;;;;4989218;28;20465;-69
2022/02/11 05:00:38;;;;;;;4.30;2.30;;;4.70;99.90;;;;;;5011411;28;20871;-68
2022/02/11 05:03:03;;;;;;;1.90;1.67;;;4.70;99.90;;;;;;4989532;28;20465;-68
2022/02/11 05:05:29;;;;;;;2.00;1.33;;;4.70;99.90;;;;;;4973542;28;20471;-69
2022/02/11 05:07:55;;;;;;;2.00;1.80;;;4.70;99.90;;;;;;4991450;28;20222;-70
2022/02/11 05:10:21;;;;;;;1.57;1.47;;;4.70;99.90;;;;;;4973150;28;20229;-68
2022/02/11 05:12:47;;;;;;;4.13;2.37;;;4.60;99.90;;;;;;4970556;28;20240;-69
2022/02/11 05:15:15;;;;;;;2.50;1.53;;;4.50;99.90;;;;;;4989283;28;20473;-69
2022/02/11 05:17:51;;;;;;;3.17;1.70;;;4.50;99.90;;;;;;4988749;28;20222;-69
2022/02/11 05:20:16;;;;;;;2.20;1.53;;;4.50;99.90;;;;;;4988282;28;20457;-70
2022/02/11 05:22:42;;;;;;;8.53;1.70;;;4.50;99.90;;;;;;4998471;28;20457;-69
2022/02/11 05:25:08;;;;;;;3.33;2.20;;;4.50;99.90;;;;;;4984468;28;20601;-69
2022/02/11 05:27:36;;;;;;;2.23;2.03;;;4.40;99.90;;;;;;4990935;28;20264;-69
2022/02/11 05:30:02;;;;;;;3.20;1.97;;;4.50;99.90;;;;;;4990073;28;20461;-68
2022/02/11 05:32:27;;;;;;;3.10;1.77;;;4.50;99.90;;;;;;4996692;28;20457;-69
2022/02/11 05:34:53;;;;;;;4.73;1.90;;;4.50;99.90;;;;;;5006457;28;20459;-69
2022/02/11 05:37:19;;;;;;;2.30;1.73;;;4.40;99.90;;;;;;4999155;28;20276;-68
2022/02/11 05:39:44;;;;;;;2.63;1.53;;;4.40;99.90;;;;;;4970503;28;20218;-69
2022/02/11 05:42:10;;;;;;;3.27;2.30;;;4.40;99.90;;;;;;4969568;28;20632;-68
2022/02/11 05:44:36;;;;;;;2.20;1.60;;;4.30;99.90;;;;;;4981541;28;20228;-68
2022/02/11 05:47:02;;;;;;;3.10;1.90;;;4.20;99.90;;;;;;4993590;28;20237;-69
2022/02/11 05:49:27;;;;;;;2.57;1.73;;;4.10;99.90;;;;;;4985708;28;20230;-69
2022/02/11 05:51:53;;;;;;;4.97;2.13;;;4.00;99.90;;;;;;4993825;28;20224;-68
2022/02/11 05:54:19;;;;;;;3.37;2.30;;;4.00;99.90;;;;;;4990765;28;20226;-69
2022/02/11 05:56:44;;;;;;;5.13;2.80;;;3.90;99.90;;;;;;4978024;28;20229;-68
2022/02/11 05:59:10;;;;;;;3.57;2.30;;;3.90;99.90;;;;;;4974166;28;20241;-69
2022/02/11 06:01:36;;;;;;;3.10;2.43;;;3.80;99.90;;;;;;4988995;28;20213;-68
2022/02/11 06:04:01;;;;;;;4.30;2.40;;;3.80;99.90;;;;;;4979300;28;20309;-69
2022/02/11 06:06:27;;;;;;;2.30;1.83;;;3.70;99.90;;;;;;4991342;28;20209;-69
2022/02/11 06:08:53;;;;;;;6.97;2.70;;;3.70;99.90;;;;;;4986927;28;20229;-68
2022/02/11 06:11:19;;;;;;;4.90;3.03;;;3.60;99.90;;;;;;4985817;28;20581;-68
2022/02/11 06:13:44;;;;;;;3.90;2.40;;;3.50;99.90;;;;;;4989359;28;20229;-68
2022/02/11 06:16:10;;;;;;;3.53;2.73;;;3.50;99.90;;;;;;4989362;28;20210;-69
2022/02/11 06:18:37;;;;;;;3.47;2.50;;;3.40;99.90;;;;;;5000711;28;20324;-69
2022/02/11 06:21:03;;;;;;;5.13;2.77;;;3.40;99.90;;;;;;4991215;28;20452;-68
2022/02/11 06:23:31;;;;;;;6.23;2.67;;;3.40;99.90;;;;;;4994198;28;20448;-69
2022/02/11 06:25:57;;;;;;;8.60;3.80;;;3.40;99.90;;;;;;4986493;28;20449;-69
2022/02/11 06:28:23;;;;;;;4.47;3.20;;;3.30;99.90;;;;;;4969732;28;20472;-69
2022/02/11 06:30:48;;;;;;;7.93;3.00;;;3.40;99.90;;;;;;4994052;28;20448;-68
2022/02/11 06:33:14;;;;;;;5.40;3.37;;;3.40;99.90;;;;;;5000392;28;20280;-68
2022/02/11 06:35:44;;;;;;;4.43;3.30;;;3.30;99.90;;;;;;4993560;28;20210;-69
2022/02/11 06:38:10;;;;;;;5.30;3.63;;;3.30;99.90;;;;;;4996440;28;20213;-69
2022/02/11 06:40:37;;;;;;;5.90;3.20;;;3.30;99.90;;;;;;4984586;28;20464;-69
2022/02/11 06:43:03;;;;;;;6.00;2.57;;;3.20;99.90;;;;;;4991440;28;20515;-69
2022/02/11 06:45:29;;;;;;;7.97;3.60;;;3.20;99.90;;;;;;4977494;28;20474;-69
2022/02/11 06:47:55;;;;;;;5.30;3.10;;;3.10;99.90;;;;;;4991973;28;20480;-69
2022/02/11 06:50:21;;;;;;;10.10;4.10;;;3.20;99.90;;;;;;4987682;28;20210;-69
2022/02/11 06:52:49;;;;;;;5.87;4.53;;;3.20;99.90;;;;;;4991143;28;20415;-69
2022/02/11 06:55:15;;;;;;;5.23;3.30;;;3.10;99.90;;;;;;5002680;28;20455;-68
2022/02/11 06:57:42;;;;;;;5.50;3.10;;;3.10;99.90;;;;;;4993559;28;20523;-70
2022/02/11 07:00:09;;;;;;;5.53;3.47;;;3.10;99.90;;;;;;4991582;28;20477;-67
2022/02/11 07:02:35;;;;;;;5.83;3.30;;;3.10;99.90;;;;;;5003923;28;20444;-68
2022/02/11 07:05:02;;;;;;;6.30;2.90;;;3.10;99.90;;;;;;5012726;28;20464;-69
2022/02/11 07:07:27;;;;;;;9.93;3.97;;;3.00;99.90;;;;;;5011569;28;20221;-69
2022/02/11 07:09:54;;;;;;;6.80;2.97;;;3.00;99.90;;;;;;5011912;28;20471;-69
2022/02/11 07:12:20;;;;;;;3.43;2.70;;;2.90;99.90;;;;;;4982074;28;20228;-69
2022/02/11 07:14:46;;;;;;;5.93;3.47;;;2.90;99.90;;;;;;4997598;28;20461;-68
2022/02/11 07:17:12;;;;;;;4.23;3.27;;;2.90;99.90;;;;;;4989226;28;20237;-69
2022/02/11 07:19:38;;;;;;;4.20;2.77;;;2.90;99.90;;;;;;4978484;28;20222;-70
2022/02/11 07:22:05;;;;;;;6.03;3.87;;;2.90;99.90;;;;;;4979644;28;20454;-70
2022/02/11 07:24:31;;;;;;;3.90;3.50;;;2.90;99.90;;;;;;4982105;28;20540;-70
2022/02/11 07:26:57;;;;;;;9.30;3.73;;;2.90;99.90;;;;;;4974788;28;20461;-70
2022/02/11 07:29:23;;;;;;;4.93;2.93;;;2.90;99.90;;;;;;4976962;28;20558;-70
2022/02/11 07:31:49;;;;;;;5.37;3.03;;;3.00;99.90;;;;;;4986745;28;20450;-70
2022/02/11 07:34:16;;;;;;;8.47;4.20;;;3.00;99.90;;;;;;4979094;28;20229;-70
2022/02/11 07:36:43;;;;;;;10.03;3.40;;;3.00;99.90;;;;;;4986058;28;20481;-70
2022/02/11 07:39:08;;;;;;;7.33;3.70;;;3.00;99.90;;;;;;4988287;28;20468;-70
2022/02/11 07:41:34;;;;;;;2.90;2.60;;;3.00;99.90;;;;;;4971350;28;20441;-69
2022/02/11 07:44:00;;;;;;;4.27;3.00;;;3.00;99.90;;;;;;4981831;28;20214;-70
2022/02/11 07:46:26;;;;;;;11.03;3.10;;;3.00;99.90;;;;;;4987583;28;20311;-69
2022/02/11 07:48:52;;;;;;;3.30;2.53;;;3.00;99.90;;;;;;4980438;28;20217;-70
2022/02/11 07:51:18;;;;;;;11.10;4.43;;;3.10;99.90;;;;;;4964987;28;20860;-69
2022/02/11 07:53:45;;;;;;;9.30;3.40;;;3.10;99.90;;;;;;4989056;28;20248;-69
2022/02/11 07:56:12;;;;;;;13.20;4.20;;;3.10;99.90;;;;;;4990698;28;20325;-69
2022/02/11 07:58:38;;;;;;;5.00;3.50;;;3.10;99.90;;;;;;4991669;28;20497;-70
2022/02/11 08:01:07;;;;;;;11.30;3.50;;;3.20;99.90;;;;;;4981295;28;20468;-68
2022/02/11 08:03:37;;;;;;;4.67;3.20;;;3.20;99.90;;;;;;4976532;28;21013;-68
2022/02/11 08:06:03;;;;;;;5.40;3.30;;;3.30;99.90;;;;;;4963105;28;20925;-68
2022/02/11 08:08:31;;;;;;;4.67;3.30;;;3.30;99.90;;;;;;4977959;28;20484;-68
2022/02/11 08:11:01;;;;;;;4.90;3.70;;;3.30;99.90;;;;;;4984104;28;20214;-70
2022/02/11 08:13:26;;;;;;;3.83;2.67;;;3.40;99.90;;;;;;4987760;28;20464;-69
2022/02/11 08:15:52;;;;;;;5.00;3.07;;;3.40;99.90;;;;;;4988463;28;20803;-69
2022/02/11 08:18:18;;;;;;;4.40;3.10;;;3.40;99.90;;;;;;4985867;28;20628;-69
2022/02/11 08:20:44;;;;;;;8.00;3.60;;;3.40;99.90;;;;;;4974204;28;20462;-69
2022/02/11 08:25:54;;;;;;;4.43;2.50;;;3.50;99.90;;;;;;4981514;28;21032;-70
2022/02/11 08:28:20;;;;;;;7.17;4.07;;;3.50;99.90;;;;;;4966077;28;20533;-69
2022/02/11 08:30:49;;;;;;;4.87;3.40;;;3.50;99.90;;;;;;4974750;28;20218;-69
2022/02/11 08:33:17;;;;;;;9.40;3.10;;;3.50;99.90;;;;;;4964892;28;20214;-68
2022/02/11 08:35:44;;;;;;;5.23;3.00;;;3.60;99.90;;;;;;4980523;28;20454;-70
2022/02/11 08:38:10;;;;;;;9.40;2.80;;;3.60;99.90;;;;;;4988180;28;20469;-69
2022/02/11 08:40:36;;;;;;;4.90;2.87;;;3.60;99.90;;;;;;4992652;28;20488;-69
2022/02/11 08:43:04;;;;;;;3.23;2.60;;;3.70;99.90;;;;;;4967940;28;20499;-69
2022/02/11 08:45:31;;;;;;;7.27;3.20;;;3.70;99.90;;;;;;4971574;28;20210;-69
2022/02/11 08:47:57;;;;;;;4.87;2.70;;;3.70;99.90;;;;;;4985357;28;21149;-69
2022/02/11 08:50:24;;;;;;;5.30;3.33;;;3.70;99.90;;;;;;4987808;28;20472;-70
2022/02/11 08:52:51;;;;;;;5.23;3.50;;;3.80;99.90;;;;;;4981972;28;20213;-68
2022/02/11 08:55:21;;;;;;;3.43;3.13;;;3.80;99.90;;;;;;4982883;28;20912;-68
2022/02/11 08:57:48;;;;;;;4.30;3.43;;;3.90;99.90;;;;;;4980901;28;20483;-69
2022/02/11 09:00:17;;;;;;;11.00;4.20;;;3.90;99.90;;;;;;4981746;28;20556;-70
2022/02/11 09:02:43;;;;;;;5.70;4.03;;;4.00;99.90;;;;;;4978762;28;20534;-69
2022/02/11 09:05:09;;;;;;;21.47;10.20;;;4.10;99.90;;;;;;4960712;28;20553;-68
2022/02/11 09:07:34;;;;;;;40.50;18.40;;;4.20;99.90;;;;;;4969627;28;20249;-69
2022/02/11 09:10:00;;;;;;;30.03;14.40;;;4.20;99.90;;;;;;4985457;28;20457;-68
2022/02/11 09:12:26;;;;;;;9.50;7.53;;;4.30;99.90;;;;;;4978921;28;20230;-68
2022/02/11 09:14:52;;;;;;;8.80;5.40;;;4.30;99.90;;;;;;4958880;28;20230;-70
2022/02/11 09:17:18;;;;;;;6.93;4.60;;;4.30;99.90;;;;;;4976195;28;20243;-69
2022/02/11 09:19:47;;;;;;;8.33;5.30;;;4.30;99.90;;;;;;4957708;28;20268;-69
2022/02/11 09:22:12;;;;;;;19.53;7.07;;;4.40;99.90;;;;;;4982462;28;20218;-69
2022/02/11 09:24:38;;;;;;;35.97;16.00;;;4.40;99.90;;;;;;4981510;28;20460;-69
2022/02/11 09:27:04;;;;;;;26.17;13.50;;;4.40;99.90;;;;;;4984969;28;20218;-67
2022/02/11 09:29:31;;;;;;;18.30;10.83;;;4.50;99.90;;;;;;4981330;28;20222;-69
2022/02/11 09:31:57;;;;;;;15.97;9.10;;;4.50;99.90;;;;;;4978028;28;20449;-70
2022/02/11 09:34:23;;;;;;;5.80;4.77;;;4.50;99.90;;;;;;4968857;28;20523;-69
2022/02/11 09:36:49;;;;;;;9.23;3.90;;;4.60;99.90;;;;;;4981844;28;20234;-69
2022/02/11 09:39:15;;;;;;;8.90;5.03;;;4.60;99.90;;;;;;4994124;28;20213;-70
2022/02/11 09:41:41;;;;;;;13.63;7.17;;;4.70;99.90;;;;;;4987655;28;20477;-68
2022/02/11 09:44:07;;;;;;;13.10;6.80;;;4.90;99.90;;;;;;4993069;28;20225;-68
2022/02/11 09:46:37;;;;;;;8.70;4.97;;;4.90;99.90;;;;;;4984964;28;20452;-70
2022/02/11 09:49:04;;;;;;;11.13;3.90;;;5.10;99.90;;;;;;4987322;28;20471;-69
2022/02/11 09:51:30;;;;;;;4.23;3.30;;;5.20;99.90;;;;;;4972089;28;20465;-69
2022/02/11 09:53:56;;;;;;;5.00;3.13;;;5.40;99.90;;;;;;4981459;28;20829;-70
2022/02/11 09:56:23;;;;;;;3.10;2.80;;;5.40;99.90;;;;;;4979916;28;20457;-70
2022/02/11 09:58:50;;;;;;;2.40;1.90;;;5.40;99.90;;;;;;4971249;28;20222;-68
2022/02/11 10:01:19;;;;;;;4.70;2.93;;;5.50;99.90;;;;;;4973547;28;20478;-68
2022/02/11 10:04:05;;;;;;;3.90;1.60;;;5.50;99.90;;;;;;4988662;28;20512;-68
2022/02/11 10:06:31;;;;;;;3.20;1.60;;;5.50;99.90;;;;;;4963122;28;20492;-70
2022/02/11 10:08:57;;;;;;;2.80;1.90;;;5.60;99.90;;;;;;4982016;28;20457;-70
2022/02/11 10:11:23;;;;;;;7.23;4.57;;;5.50;99.90;;;;;;4982482;28;20279;-69
2022/02/11 10:13:49;;;;;;;11.83;7.90;;;5.50;99.90;;;;;;4969116;28;20468;-68
2022/02/11 10:16:16;;;;;;;19.87;9.47;;;5.50;99.90;;;;;;4979769;28;20226;-69
2022/02/11 10:18:43;;;;;;;11.90;6.20;;;5.50;99.90;;;;;;4972380;28;20210;-68
2022/02/11 10:21:20;;;;;;;13.33;9.10;;;5.50;99.90;;;;;;4991680;28;20449;-69
2022/02/11 10:23:48;;;;;;;9.50;6.07;;;5.50;99.90;;;;;;4966271;28;20492;-68
2022/02/11 10:26:20;;;;;;;5.73;3.47;;;5.50;99.90;;;;;;4983757;28;20464;-70
2022/02/11 10:28:55;;;;;;;6.40;3.03;;;5.60;99.90;;;;;;4965545;28;20473;-68
2022/02/11 10:31:27;;;;;;;7.10;2.67;;;5.60;99.90;;;;;;4978198;28;20492;-70
2022/02/11 10:34:11;;;;;;;2.37;2.17;;;5.60;99.90;;;;;;4982444;28;20459;-69
2022/02/11 10:36:43;;;;;;;6.63;3.27;;;5.60;99.90;;;;;;5000274;28;20559;-69
2022/02/11 10:39:12;;;;;;;3.70;3.20;;;5.50;99.90;;;;;;4989205;28;20465;-69
2022/02/11 10:41:52;;;;;;;3.13;2.80;;;5.60;99.90;;;;;;4961996;28;20557;-69
2022/02/11 10:44:22;;;;;;;5.60;2.77;;;5.70;99.90;;;;;;4973956;28;20493;-68
2022/02/11 10:46:50;;;;;;;4.90;3.20;;;5.80;99.90;;;;;;4990891;28;20834;-68
2022/02/11 10:49:17;;;;;;;4.83;2.60;;;5.80;99.90;;;;;;4977760;28;20470;-68
2022/02/11 10:51:47;;;;;;;2.20;2.00;;;5.90;99.90;;;;;;4982510;28;20456;-69
2022/02/11 10:54:25;;;;;;;2.77;2.50;;;6.10;99.90;;;;;;4976114;28;20463;-68
2022/02/11 10:56:56;;;;;;;4.63;2.23;;;6.20;99.90;;;;;;4988588;28;20492;-69
2022/02/11 10:59:26;;;;;;;2.20;1.80;;;6.30;99.90;;;;;;4967105;28;20440;-68
2022/02/11 11:01:53;;;;;;;2.83;1.73;;;6.40;99.90;;;;;;4990699;28;20515;-69
2022/02/11 11:04:19;;;;;;;2.63;1.77;;;6.50;99.90;;;;;;4991813;28;20488;-68
2022/02/11 11:06:47;;;;;;;3.23;1.90;;;6.50;99.90;;;;;;4985910;28;20489;-68
2022/02/11 11:09:16;;;;;;;1.67;1.43;;;6.60;99.90;;;;;;4980388;28;20225;-69
2022/02/11 11:11:44;;;;;;;3.10;1.50;;;6.50;99.90;;;;;;4981935;28;20465;-69
2022/02/11 11:14:16;;;;;;;1.80;1.70;;;6.50;99.90;;;;;;4980531;28;20469;-68
2022/02/11 11:16:44;;;;;;;4.20;2.00;;;6.50;99.90;;;;;;4982279;28;20558;-69
2022/02/11 11:19:10;;;;;;;4.23;1.50;;;6.50;99.90;;;;;;4963332;28;20465;-70
2022/02/11 11:21:39;;;;;;;1.43;1.13;;;6.50;99.90;;;;;;4957932;28;20532;-69
2022/02/11 11:24:06;;;;;;;2.43;1.30;;;6.50;99.90;;;;;;4968108;28;20473;-70
2022/02/11 11:26:39;;;;;;;4.53;1.30;;;6.40;99.90;;;;;;4968877;28;20449;-68
2022/02/11 11:29:08;;;;;;;1.13;0.90;;;6.40;99.90;;;;;;4989261;28;20536;-69
2022/02/11 11:31:35;;;;;;;7.70;1.43;;;6.50;99.90;;;;;;4987606;28;21026;-69
2022/02/11 11:34:21;;;;;;;2.23;1.60;;;6.60;99.90;;;;;;4987574;28;20465;-68
2022/02/11 11:36:53;;;;;;;2.27;1.10;;;6.60;99.90;;;;;;4957778;28;20886;-69
2022/02/11 11:39:20;;;;;;;5.80;3.47;;;6.60;99.90;;;;;;4971692;28;20450;-69
2022/02/11 11:42:07;;;;;;;7.43;2.67;;;6.80;99.90;;;;;;4970681;28;20449;-68
2022/02/11 11:44:51;;;;;;;7.53;3.03;;;6.80;99.90;;;;;;4984927;28;20490;-69
2022/02/11 11:47:43;;;;;;;4.70;1.50;;;6.70;99.90;;;;;;4979531;28;20476;-68
2022/02/11 11:50:18;;;;;;;3.27;1.50;;;6.80;99.90;;;;;;4977261;28;20466;-69
2022/02/11 11:52:46;;;;;;;6.20;2.03;;;6.80;99.90;;;;;;4998079;28;20465;-69
2022/02/11 11:55:22;;;;;;;3.63;2.50;;;6.70;99.90;;;;;;4981369;28;20449;-69
2022/02/11 11:57:49;;;;;;;11.80;4.40;;;6.80;99.90;;;;;;4955537;28;20484;-68
2022/02/11 12:00:33;;;;;;;12.20;5.73;;;6.80;99.90;;;;;;4982778;28;20468;-69
2022/02/11 12:02:59;;;;;;;10.63;6.70;;;6.90;99.90;;;;;;4997802;28;20472;-68
2022/02/11 12:05:42;;;;;;;19.60;10.80;;;6.90;99.90;;;;;;4985686;28;20465;-69
2022/02/11 12:08:08;;;;;;;38.03;18.90;;;6.90;99.90;;;;;;4975779;28;20229;-69
2022/02/11 12:10:35;;;;;;;38.93;21.23;;;7.00;99.90;;;;;;4959054;28;20460;-68
2022/02/11 12:13:01;;;;;;;23.70;11.80;;;7.10;99.90;;;;;;4970389;28;20244;-69
2022/02/11 12:15:27;;;;;;;22.37;12.50;;;7.20;99.90;;;;;;4984821;28;20441;-69
2022/02/11 12:17:54;;;;;;;18.60;10.43;;;7.30;99.90;;;;;;4971698;28;20464;-68
2022/02/11 12:20:21;;;;;;;23.70;9.40;;;7.30;99.90;;;;;;4967499;28;20557;-69
2022/02/11 12:27:20;;;;;;;20.17;6.50;;;7.40;99.90;;;;;;4984793;28;20536;-70
2022/02/11 12:28:21;;;;;;;19.13;8.20;;;7.50;99.90;;;;;;4983238;28;20476;-69
2022/02/11 12:30:55;;;;;;;12.07;7.30;;;7.60;99.90;;;;;;4973491;28;20562;-70
2022/02/11 12:33:21;;;;;;;11.20;5.63;;;7.70;99.90;;;;;;4984485;28;20849;-69
2022/02/11 12:35:50;;;;;;;5.00;3.63;;;7.60;99.90;;;;;;4988824;28;20471;-69
2022/02/11 12:38:16;;;;;;;3.50;2.20;;;7.60;99.90;;;;;;4980004;28;20229;-70
2022/02/11 12:40:44;;;;;;;3.07;1.53;;;7.60;99.90;;;;;;4969300;28;20465;-69
2022/02/11 12:43:11;;;;;;;4.20;2.07;;;7.50;99.90;;;;;;4984166;28;20305;-70
2022/02/11 12:45:40;;;;;;;3.50;1.53;;;7.50;99.90;;;;;;4969035;28;20488;-70
2022/02/11 12:48:10;;;;;;;1.47;1.20;;;7.40;99.90;;;;;;4983790;28;20457;-69
2022/02/11 12:50:38;;;;;;;4.63;1.63;;;7.10;99.90;;;;;;4977000;28;20454;-69
2022/02/11 12:53:06;;;;;;;2.50;1.50;;;6.80;99.90;;;;;;4961424;28;20496;-69
2022/02/11 12:55:36;;;;;;;2.40;1.10;;;6.70;99.90;;;;;;4989830;28;20829;-69
2022/02/11 12:58:04;;;;;;;2.10;1.23;;;6.80;99.90;;;;;;4988060;28;20496;-69
2022/02/11 13:00:38;;;;;;;2.30;1.00;;;6.90;99.90;;;;;;4984153;28;20995;-69
2022/02/11 13:03:05;;;;;;;2.87;1.00;;;6.90;99.90;;;;;;4985798;28;21002;-69
2022/02/11 13:05:44;;;;;;;1.33;0.80;;;6.90;99.90;;;;;;4968208;28;21001;-69
2022/02/11 13:08:19;;;;;;;3.03;0.90;;;6.80;99.90;;;;;;4970170;28;20458;-69
2022/02/11 13:10:48;;;;;;;6.30;1.70;;;6.90;99.90;;;;;;4979246;28;20488;-68
2022/02/11 13:13:18;;;;;;;4.03;1.97;;;6.90;99.90;;;;;;4986258;28;21035;-68
2022/02/11 13:15:46;;;;;;;4.40;2.50;;;6.90;99.90;;;;;;4980307;28;20472;-69
2022/02/11 13:18:16;;;;;;;6.53;3.10;;;7.00;99.90;;;;;;5001950;28;20477;-69
2022/02/11 13:20:53;;;;;;;5.70;2.57;;;7.00;99.90;;;;;;4987460;28;20454;-69
2022/02/11 13:23:22;;;;;;;2.37;1.70;;;6.80;99.90;;;;;;4965941;28;20982;-69
2022/02/11 13:25:49;;;;;;;4.60;1.60;;;6.70;99.90;;;;;;5000896;28;20453;-67
2022/02/11 13:28:17;;;;;;;5.23;3.40;;;6.80;99.90;;;;;;4983304;28;20514;-70
2022/02/11 13:30:47;;;;;;;3.93;2.73;;;6.80;99.90;;;;;;4983974;28;20544;-69
2022/02/11 13:33:26;;;;;;;8.13;2.40;;;6.90;99.90;;;;;;4995598;28;20457;-68
2022/02/11 13:35:55;;;;;;;2.30;0.93;;;6.90;99.90;;;;;;4988689;28;20460;-68
2022/02/11 13:38:24;;;;;;;2.27;1.00;;;6.90;99.90;;;;;;4962441;28;20466;-69
2022/02/11 13:40:54;;;;;;;3.37;1.13;;;7.00;99.90;;;;;;4967479;28;21034;-69
2022/02/11 13:43:20;;;;;;;3.23;1.63;;;7.00;99.90;;;;;;4989612;28;20968;-69
2022/02/11 13:45:58;;;;;;;3.53;0.83;;;6.90;99.90;;;;;;4990097;28;20536;-69
2022/02/11 13:48:27;;;;;;;4.53;1.37;;;6.90;99.90;;;;;;4989890;28;20708;-69
2022/02/11 13:50:54;;;;;;;7.37;1.37;;;6.90;99.90;;;;;;4966121;28;20527;-68
2022/02/11 13:53:40;;;;;;;4.00;1.23;;;7.00;99.90;;;;;;4985729;28;20485;-69
2022/02/11 13:56:14;;;;;;;7.00;2.10;;;7.10;99.90;;;;;;4983525;28;20559;-68
2022/02/11 13:59:01;;;;;;;2.80;1.40;;;7.10;99.90;;;;;;4973644;28;20530;-69
2022/02/11 14:01:29;;;;;;;1.20;1.10;;;7.10;99.90;;;;;;4986040;28;20560;-70
2022/02/11 14:04:03;;;;;;;2.43;1.20;;;7.00;99.90;;;;;;4965970;28;20476;-69
2022/02/11 14:06:36;;;;;;;1.90;1.10;;;7.10;99.90;;;;;;4983863;28;20465;-69
2022/02/11 14:09:06;;;;;;;1.17;0.97;;;7.10;99.90;;;;;;4996717;28;20556;-69
2022/02/11 14:11:40;;;;;;;3.27;1.47;;;7.10;99.90;;;;;;4976486;28;20513;-69
2022/02/11 14:14:19;;;;;;;2.43;1.50;;;7.10;99.90;;;;;;4981221;28;20547;-69
2022/02/11 14:16:46;;;;;;;18.53;9.90;;;7.10;99.90;;;;;;4982753;28;20476;-69
2022/02/11 14:19:14;;;;;;;14.30;6.93;;;7.10;99.90;;;;;;4967333;28;20841;-69
2022/02/11 14:21:41;;;;;;;5.70;3.97;;;7.10;99.90;;;;;;4966680;28;20453;-68
2022/02/11 14:24:08;;;;;;;2.90;2.03;;;7.10;99.90;;;;;;4966169;28;20493;-69
2022/02/11 14:26:34;;;;;;;4.67;1.83;;;7.10;99.90;;;;;;4984949;28;21030;-69
2022/02/11 14:29:00;;;;;;;2.60;2.40;;;7.10;99.90;;;;;;4963826;28;20555;-67
2022/02/11 14:31:26;;;;;;;9.50;3.40;;;7.10;99.90;;;;;;4977346;28;20523;-69
2022/02/11 14:33:51;;;;;;;2.80;2.07;;;7.20;99.90;;;;;;4980637;28;20261;-69
2022/02/11 14:36:17;;;;;;;5.33;1.97;;;7.10;99.90;;;;;;4977846;28;20321;-68
2022/02/11 14:38:43;;;;;;;4.00;1.70;;;7.00;99.90;;;;;;4986009;28;20233;-69
2022/02/11 14:43:53;;;;;;;1.40;1.30;;;7.10;99.90;;;;;;5000256;28;20694;-69
2022/02/11 14:46:21;;;;;;;8.10;3.70;;;7.20;99.90;;;;;;4961596;28;20509;-70
2022/02/11 14:48:47;;;;;;;9.17;4.10;;;7.20;99.90;;;;;;4974335;28;20330;-70
2022/02/11 14:51:13;;;;;;;14.37;6.60;;;7.30;99.90;;;;;;4975243;28;20513;-68
2022/02/11 14:53:38;;;;;;;8.53;4.73;;;7.20;99.90;;;;;;4991683;28;20515;-69
2022/02/11 14:56:07;;;;;;;6.33;3.50;;;7.20;99.90;;;;;;4971202;28;20293;-68
2022/02/11 14:58:33;;;;;;;4.43;2.90;;;7.20;99.90;;;;;;4987596;28;20466;-68
2022/02/11 15:00:59;;;;;;;5.20;2.57;;;7.20;99.90;;;;;;4987714;28;20477;-68
2022/02/11 15:03:26;;;;;;;5.40;2.20;;;7.20;99.90;;;;;;4986628;28;20477;-69
2022/02/11 15:05:52;;;;;;;7.57;1.73;;;7.10;99.90;;;;;;4982112;28;20529;-69
2022/02/11 15:08:18;;;;;;;1.93;1.20;;;7.00;99.90;;;;;;4977643;28;20548;-69
2022/02/11 15:10:44;;;;;;;1.67;1.43;;;6.90;99.90;;;;;;4972115;28;20222;-69
2022/02/11 15:13:09;;;;;;;5.50;2.10;;;6.90;99.90;;;;;;4963670;28;20242;-69
2022/02/11 15:15:40;;;;;;;5.20;2.10;;;6.90;99.90;;;;;;4963653;28;20548;-68
2022/02/11 15:18:07;;;;;;;4.93;2.00;;;6.90;99.90;;;;;;4999131;28;20244;-70
2022/02/11 15:20:34;;;;;;;6.33;2.33;;;6.90;99.90;;;;;;4976158;28;20450;-68
2022/02/11 15:23:00;;;;;;;4.50;1.90;;;6.80;99.90;;;;;;4986451;28;20493;-69
2022/02/11 15:25:26;;;;;;;11.00;1.80;;;6.70;99.90;;;;;;4989137;28;20476;-69
2022/02/11 15:27:52;;;;;;;2.67;1.53;;;6.70;99.90;;;;;;4959950;28;20226;-69
2022/02/11 15:30:18;;;;;;;7.60;1.83;;;6.80;99.90;;;;;;4966615;28;20473;-68
2022/02/11 15:32:43;;;;;;;4.17;1.50;;;6.80;99.90;;;;;;4980370;28;20214;-69
2022/02/11 15:35:10;;;;;;;1.57;1.47;;;6.70;99.90;;;;;;4973364;28;20704;-69
2022/02/11 15:37:36;;;;;;;3.43;1.63;;;6.70;99.90;;;;;;4984757;28;20233;-68
2022/02/11 15:40:02;;;;;;;7.73;3.97;;;6.80;99.90;;;;;;4983760;28;21017;-69
2022/02/11 15:42:28;;;;;;;13.20;5.10;;;6.70;99.90;;;;;;4983138;28;20461;-68
2022/02/11 15:44:54;;;;;;;7.20;3.60;;;6.70;99.90;;;;;;4983134;28;20873;-68
2022/02/11 15:47:19;;;;;;;10.67;6.50;;;6.70;99.90;;;;;;4994878;28;20226;-69
2022/02/11 15:49:45;;;;;;;13.67;8.27;;;6.70;99.90;;;;;;4994199;28;20217;-69
2022/02/11 15:52:11;;;;;;;9.50;6.00;;;6.70;99.90;;;;;;4990916;28;20268;-69
2022/02/11 15:54:38;;;;;;;5.50;4.00;;;6.70;99.90;;;;;;4998179;28;20221;-68
2022/02/11 15:57:04;;;;;;;11.27;5.40;;;6.70;99.90;;;;;;4997861;28;20561;-69
2022/02/11 15:59:30;;;;;;;15.67;6.93;;;6.70;99.90;;;;;;4989622;28;20446;-68
2022/02/11 16:01:56;;;;;;;10.20;5.00;;;6.60;99.90;;;;;;4994644;28;20453;-69
2022/02/11 16:04:22;;;;;;;11.90;4.37;;;6.60;99.90;;;;;;4990714;28;20879;-69
2022/02/11 16:06:48;;;;;;;8.30;4.77;;;6.50;99.90;;;;;;4989186;28;20225;-68
2022/02/11 16:09:13;;;;;;;20.23;7.30;;;6.50;99.90;;;;;;4997073;28;20226;-70
2022/02/11 16:11:39;;;;;;;10.07;4.43;;;6.50;99.90;;;;;;4985148;28;20209;-68
2022/02/11 16:14:05;;;;;;;14.20;3.10;;;6.50;99.90;;;;;;4995564;28;20225;-69
2022/02/11 16:16:31;;;;;;;5.60;2.77;;;6.50;99.90;;;;;;4998715;28;20479;-68
2022/02/11 16:18:57;;;;;;;3.57;2.50;;;6.50;99.90;;;;;;5011781;28;20236;-69
2022/02/11 16:21:22;;;;;;;6.23;3.00;;;6.50;99.90;;;;;;4990721;28;20217;-69
2022/02/11 16:23:48;;;;;;;10.10;3.20;;;6.40;99.90;;;;;;4999364;28;20292;-68
2022/02/11 16:26:15;;;;;;;7.70;2.43;;;6.40;99.90;;;;;;5008127;28;20236;-69
2022/02/11 16:28:41;;;;;;;6.50;2.30;;;6.40;99.90;;;;;;5001590;28;20213;-69
2022/02/11 16:31:20;;;;;;;3.67;1.87;;;6.40;99.90;;;;;;4986823;28;20987;-68
2022/02/11 16:33:46;;;;;;;4.60;2.50;;;6.40;99.90;;;;;;4986241;28;20487;-68
2022/02/11 16:36:12;;;;;;;3.63;2.60;;;6.40;99.90;;;;;;4987319;28;20482;-68
2022/02/11 16:38:43;;;;;;;10.00;2.23;;;6.40;99.90;;;;;;4984717;28;20910;-69
2022/02/11 16:41:10;;;;;;;4.37;2.03;;;6.30;99.90;;;;;;4986983;28;20217;-70
2022/02/11 16:43:36;;;;;;;5.90;1.97;;;6.20;99.90;;;;;;4989239;28;20457;-69
2022/02/11 16:46:03;;;;;;;5.37;1.67;;;6.20;99.90;;;;;;5003680;28;20475;-69
2022/02/11 16:48:29;;;;;;;2.80;1.53;;;6.10;99.90;;;;;;4991433;28;20449;-68